createdAt,value
2022-10-05T01:00:29.022Z,9.20
2022-10-05T01:03:53.361Z,9.20
2022-10-05T01:07:49.853Z,9.16
2022-10-05T01:11:53.072Z,9.20
2022-10-05T01:15:26.045Z,9.26
2022-10-05T01:19:08.690Z,9.20
2022-10-05T01:22:29.676Z,9.20
2022-10-05T01:25:53.146Z,9.10
2022-10-05T01:29:09.717Z,9.10
2022-10-05T01:33:08.564Z,9.00
2022-10-05T01:36:58.876Z,8.90
2022-10-05T01:40:29.146Z,8.80
2022-10-05T01:51:43.694Z,8.70
2022-10-05T01:55:26.118Z,8.70
2022-10-05T01:59:16.468Z,8.60
2022-10-05T02:02:16.275Z,8.50
2022-10-05T02:05:59.064Z,8.50
2022-10-05T02:09:07.953Z,8.42
2022-10-05T02:12:12.499Z,8.40
2022-10-05T02:15:25.625Z,8.36
2022-10-05T02:18:59.028Z,8.30
2022-10-05T02:21:59.153Z,8.20
2022-10-05T02:24:57.740Z,8.20
2022-10-05T02:28:16.721Z,8.20
2022-10-05T02:31:57.977Z,8.10
2022-10-05T02:35:06.098Z,8.10
2022-10-05T02:39:02.953Z,8.10
2022-10-05T02:42:42.705Z,8.10
2022-10-05T02:46:22.353Z,8.10
2022-10-05T02:50:11.497Z,8.20
2022-10-05T03:34:47.577Z,8.74
2022-10-05T03:37:44.505Z,8.80
2022-10-05T03:41:26.381Z,8.70
2022-10-05T03:45:36.158Z,8.70
2022-10-05T04:16:36.778Z,8.62
2022-10-05T04:20:30.205Z,8.60
2022-10-05T04:24:05.783Z,8.60
2022-10-05T05:12:11.548Z,8.10
2022-10-05T05:15:55.092Z,8.16
2022-10-05T05:19:31.269Z,8.00
2022-10-05T05:22:58.852Z,7.96
2022-10-05T05:26:51.084Z,8.00
2022-10-05T05:30:34.914Z,8.20
2022-10-05T05:34:27.778Z,8.12
2022-10-05T05:37:47.500Z,8.20
2022-10-05T05:41:28.538Z,8.22
2022-10-05T05:45:00.908Z,8.30
2022-10-05T05:48:33.432Z,8.32
2022-10-05T05:52:31.693Z,8.46
2022-10-05T05:56:10.598Z,8.50
2022-10-05T06:04:10.574Z,8.70
2022-10-05T06:08:18.595Z,8.90
2022-10-05T06:36:25.318Z,9.72
2022-10-05T06:40:19.771Z,9.68
2022-10-05T06:44:29.814Z,9.74
2022-10-05T07:09:46.404Z,10.90
2022-10-05T07:13:58.949Z,11.00
2022-10-05T07:18:12.086Z,11.20
2022-10-05T07:21:56.793Z,11.30
2022-10-05T07:25:26.330Z,11.30
2022-10-05T08:52:34.323Z,13.70
2022-10-05T08:56:01.676Z,13.76
2022-10-05T08:59:45.933Z,13.90
2022-10-05T09:03:25.495Z,14.00
2022-10-05T09:07:02.996Z,14.10
2022-10-05T09:10:47.546Z,14.30
2022-10-05T09:14:06.951Z,14.40
2022-10-05T09:17:40.833Z,14.54
2022-10-05T09:21:25.770Z,14.76
2022-10-05T09:25:18.460Z,15.00
2022-10-05T09:33:25.613Z,15.40
2022-10-05T09:37:39.081Z,15.60
2022-10-05T09:41:40.288Z,15.80
2022-10-05T09:58:14.158Z,16.76
2022-10-05T10:01:45.237Z,17.00
2022-10-05T10:05:21.050Z,17.20
2022-10-05T10:08:55.721Z,17.44
2022-10-05T10:12:48.269Z,17.70
2022-10-05T10:16:37.685Z,17.82
2022-10-05T10:44:34.983Z,18.68
2022-10-05T10:48:26.940Z,18.80
2022-10-05T10:52:31.466Z,18.86
2022-10-05T10:56:08.930Z,18.90
2022-10-05T10:59:58.307Z,18.90
2022-10-05T11:03:36.692Z,19.00
2022-10-05T11:06:45.246Z,19.10
2022-10-05T11:09:53.475Z,19.24
2022-10-05T11:13:47.780Z,19.34
2022-10-05T11:17:21.817Z,19.40
2022-10-05T11:20:53.229Z,19.40
2022-10-05T11:24:17.615Z,19.40
2022-10-05T11:27:33.920Z,19.34
2022-10-05T11:31:26.838Z,19.22
2022-10-05T11:35:11.442Z,19.10
2022-10-05T11:38:51.808Z,19.10
2022-10-05T11:42:32.700Z,19.10
2022-10-05T11:46:19.452Z,19.10
2022-10-05T11:50:07.347Z,19.20
2022-10-05T11:53:31.948Z,19.28
2022-10-05T11:57:13.637Z,19.40
2022-10-05T12:00:09.152Z,19.50
2022-10-05T12:03:15.435Z,19.60
2022-10-05T12:06:52.067Z,19.70
2022-10-05T12:10:21.203Z,19.90
2022-10-05T12:13:28.907Z,20.10
2022-10-05T12:17:03.744Z,20.20
2022-10-05T12:19:56.146Z,20.38
2022-10-05T12:22:59.259Z,20.48
2022-10-05T12:26:02.260Z,20.56
2022-10-05T12:29:44.776Z,20.68
2022-10-05T12:33:35.851Z,20.88
2022-10-05T12:37:31.777Z,21.06
2022-10-05T12:40:52.870Z,21.18
2022-10-05T12:44:03.200Z,21.10
2022-10-05T12:47:36.604Z,21.08
2022-10-05T12:51:15.148Z,21.02
2022-10-05T12:54:24.156Z,20.98
2022-10-05T12:58:10.885Z,20.98
2022-10-05T13:01:57.805Z,20.90
2022-10-05T13:05:46.087Z,20.90
2022-10-05T13:08:58.656Z,20.80
2022-10-05T13:12:28.533Z,20.70
2022-10-05T13:15:44.481Z,20.68
2022-10-05T13:19:23.621Z,20.60
2022-10-05T13:23:22.813Z,20.60
2022-10-05T13:26:55.033Z,20.60
2022-10-05T13:30:02.025Z,20.50
2022-10-05T13:33:41.474Z,20.50
2022-10-05T13:37:18.709Z,20.50
2022-10-05T13:40:35.419Z,20.50
2022-10-05T14:08:57.931Z,20.50
2022-10-05T14:11:35.182Z,20.50
2022-10-05T14:14:28.479Z,20.42
2022-10-05T14:17:54.304Z,20.40
2022-10-05T14:20:38.460Z,20.40
2022-10-05T14:24:42.763Z,20.34
2022-10-05T14:28:46.901Z,20.38
2022-10-05T14:32:35.972Z,20.30
2022-10-05T14:36:01.701Z,20.20
2022-10-05T15:00:05.234Z,19.70
2022-10-05T15:03:14.878Z,19.60
2022-10-05T15:06:14.805Z,19.60
2022-10-05T15:09:44.921Z,19.50
2022-10-05T15:13:02.438Z,19.40
2022-10-05T15:16:20.044Z,19.30
2022-10-05T15:19:44.847Z,19.30
2022-10-05T15:23:34.685Z,19.20
2022-10-05T15:27:23.334Z,19.10
2022-10-05T15:30:19.269Z,19.00
2022-10-05T15:33:40.768Z,18.90
2022-10-05T15:37:16.562Z,18.80
2022-10-05T15:40:36.089Z,18.80
2022-10-05T15:43:59.037Z,18.70
2022-10-05T15:47:18.250Z,18.68
2022-10-05T15:50:34.721Z,18.60
2022-10-05T15:53:51.381Z,18.50
2022-10-05T16:00:42.859Z,18.30
2022-10-05T16:08:14.169Z,18.10
2022-10-05T16:39:56.097Z,16.80
2022-10-05T16:50:56.388Z,16.40
2022-10-05T16:54:00.033Z,16.20
2022-10-05T16:57:27.283Z,16.10
2022-10-05T17:00:38.189Z,16.06
2022-10-05T17:04:24.600Z,15.98
2022-10-05T17:07:49.993Z,15.90
2022-10-05T17:11:03.678Z,15.90
2022-10-05T17:14:21.469Z,15.84
2022-10-05T17:17:32.115Z,15.80
2022-10-05T17:20:19.414Z,15.70
2022-10-05T17:23:36.535Z,15.60
2022-10-05T17:26:54.030Z,15.52
2022-10-05T17:29:59.918Z,15.50
2022-10-05T17:32:43.689Z,15.40
2022-10-05T17:35:41.909Z,15.30
2022-10-05T17:38:32.077Z,15.22
2022-10-05T17:41:21.491Z,15.20
2022-10-05T17:44:11.157Z,15.10
2022-10-05T17:46:46.277Z,15.10
2022-10-05T17:49:45.296Z,15.00
2022-10-05T17:52:48.235Z,14.90
2022-10-05T17:55:45.618Z,14.90
2022-10-05T17:58:28.885Z,14.80
2022-10-05T18:00:58.666Z,14.80
2022-10-05T18:03:44.062Z,14.70
2022-10-05T18:06:35.979Z,14.70
2022-10-05T18:09:28.011Z,14.60
2022-10-05T18:12:15.527Z,14.50
2022-10-05T18:15:08.598Z,14.48
2022-10-05T18:18:19.638Z,14.38
2022-10-05T18:21:32.484Z,14.30
2022-10-05T18:24:20.876Z,14.28
2022-10-05T18:27:26.446Z,14.20
2022-10-05T18:30:05.738Z,14.18
2022-10-05T18:33:22.134Z,14.10
2022-10-05T18:36:57.674Z,14.04
2022-10-05T18:40:23.095Z,14.00
2022-10-05T18:43:57.281Z,13.90
2022-10-05T18:46:59.714Z,13.90
2022-10-05T18:50:32.042Z,13.80
2022-10-05T18:54:11.532Z,13.80
2022-10-05T18:56:51.400Z,13.70
2022-10-05T19:00:21.256Z,13.70
2022-10-05T19:03:16.788Z,13.60
2022-10-05T19:06:25.499Z,13.60
2022-10-05T19:09:54.409Z,13.50
2022-10-05T19:12:43.301Z,13.50
2022-10-05T19:15:47.023Z,13.38
2022-10-05T19:18:22.320Z,13.40
2022-10-05T19:21:10.867Z,13.30
2022-10-05T19:24:15.187Z,13.30
2022-10-05T19:27:06.832Z,13.30
2022-10-05T19:30:13.966Z,13.20
2022-10-05T19:33:42.998Z,13.20
2022-10-05T19:36:49.061Z,13.10
2022-10-05T19:40:09.531Z,13.10
2022-10-05T19:43:24.383Z,13.10
2022-10-05T19:46:19.233Z,13.02
2022-10-05T19:48:54.077Z,13.00
2022-10-05T19:51:25.515Z,12.92
2022-10-05T19:54:20.247Z,12.90
2022-10-05T19:57:18.033Z,12.84
2022-10-05T20:00:25.156Z,12.80
2022-10-05T20:03:58.553Z,12.80
2022-10-05T20:06:54.381Z,12.80
2022-10-05T20:10:38.432Z,12.80
2022-10-05T20:13:36.738Z,12.70
2022-10-05T20:16:55.325Z,12.70
2022-10-05T20:20:18.356Z,12.70
2022-10-05T20:22:52.030Z,12.60
2022-10-05T20:26:06.151Z,12.60
2022-10-05T20:29:08.454Z,12.50
2022-10-05T20:32:15.437Z,12.50
2022-10-05T20:35:51.195Z,12.50
2022-10-05T20:39:37.301Z,12.50
2022-10-05T20:43:39.213Z,12.50
2022-10-05T20:46:51.445Z,12.50
2022-10-05T20:53:49.212Z,12.50
2022-10-05T20:57:23.638Z,12.50
2022-10-05T21:29:28.549Z,12.20
2022-10-05T21:32:45.280Z,12.20
2022-10-05T21:36:01.323Z,12.10
2022-10-05T21:39:23.675Z,12.10
2022-10-05T23:43:50.767Z,11.70
